Time;durP1;ratioP1;P1;durP2;ratioP2;P2;SDS_P1;SDS_P2;PMS_P1;PMS_P2;Temp;Humidity;BMP_temperature;BMP_pressure;BME280_temperature;BME280_humidity;BME280_pressure;Samples;Min_cycle;Max_cycle;Signal;HPM_P1;HPM_P2
2021/04/20 00:00:41;;;;;;;18.47;15.30;;;9.60;99.90;;;;;;5055022;28;20293;-61
2021/04/20 00:03:06;;;;;;;18.43;15.30;;;9.60;99.90;;;;;;5054736;28;20179;-59
2021/04/20 00:05:32;;;;;;;17.53;14.30;;;9.40;99.90;;;;;;5054815;28;20697;-50
2021/04/20 00:07:57;;;;;;;17.17;14.13;;;9.50;99.90;;;;;;5054878;28;20171;-51
2021/04/20 00:10:24;;;;;;;18.03;14.83;;;12.10;99.90;;;;;;5054430;28;20257;-51
2021/04/20 00:12:50;;;;;;;16.67;14.30;;;9.50;99.90;;;;;;5054466;28;20650;-49
2021/04/20 00:15:21;;;;;;;17.07;15.13;;;9.30;99.90;;;;;;5054456;28;20179;-51
2021/04/20 00:17:47;;;;;;;18.00;15.33;;;9.60;99.90;;;;;;5054543;28;20179;-54
2021/04/20 00:20:13;;;;;;;17.90;15.43;;;9.70;99.90;;;;;;5054585;28;20262;-49
2021/04/20 00:22:39;;;;;;;17.23;14.77;;;9.70;99.90;;;;;;5054120;28;20228;-58
2021/04/20 00:25:05;;;;;;;17.17;14.50;;;9.60;99.90;;;;;;5054520;28;20261;-50
2021/04/20 00:27:31;;;;;;;21.83;14.63;;;9.50;99.90;;;;;;5054223;28;20199;-59
2021/04/20 00:29:56;;;;;;;17.80;14.60;;;9.50;99.90;;;;;;5036451;28;20175;-50
2021/04/20 00:32:22;;;;;;;17.60;14.73;;;9.50;99.90;;;;;;5054256;28;20175;-61
2021/04/20 00:34:47;;;;;;;17.77;15.03;;;9.50;99.90;;;;;;5062994;28;20232;-52
2021/04/20 00:37:13;;;;;;;19.23;15.27;;;9.50;99.90;;;;;;5061109;28;20230;-49
2021/04/20 00:39:39;;;;;;;18.03;15.20;;;9.50;99.90;;;;;;5072567;28;20557;-53
2021/04/20 00:42:06;;;;;;;16.53;14.23;;;9.40;99.90;;;;;;5073619;28;20206;-58
2021/04/20 00:44:32;;;;;;;17.93;15.17;;;9.30;99.90;;;;;;5063560;28;20277;-50
2021/04/20 00:46:59;;;;;;;18.97;16.57;;;9.40;99.90;;;;;;5054143;28;20584;-61
2021/04/20 00:49:25;;;;;;;20.77;16.47;;;9.40;99.90;;;;;;5053999;28;20175;-51
2021/04/20 00:51:51;;;;;;;20.30;16.57;;;9.50;99.90;;;;;;5052460;28;20182;-54
2021/04/20 00:54:18;;;;;;;17.87;15.23;;;9.50;99.90;;;;;;5054277;28;20198;-50
2021/04/20 00:56:44;;;;;;;16.83;14.43;;;9.50;99.90;;;;;;5053722;28;20199;-60
2021/04/20 00:59:09;;;;;;;16.37;13.90;;;9.40;99.90;;;;;;5053954;28;20199;-53
2021/04/20 01:01:35;;;;;;;16.73;14.27;;;9.30;99.90;;;;;;5053641;28;20280;-51
2021/04/20 01:04:01;;;;;;;17.97;15.43;;;9.30;99.90;;;;;;5036064;28;20179;-51
2021/04/20 01:06:26;;;;;;;16.93;14.90;;;9.10;99.90;;;;;;5053782;28;20650;-60
2021/04/20 01:08:52;;;;;;;17.83;15.30;;;9.20;99.90;;;;;;5053870;28;20229;-56
2021/04/20 01:11:21;;;;;;;18.53;15.47;;;9.20;99.90;;;;;;5053710;28;20183;-60
2021/04/20 01:13:47;;;;;;;18.70;15.67;;;9.20;99.90;;;;;;5053595;28;20236;-59
2021/04/20 01:16:13;;;;;;;19.53;15.63;;;9.10;99.90;;;;;;5053808;28;20207;-59
2021/04/20 01:18:39;;;;;;;20.47;16.97;;;9.10;99.90;;;;;;5053847;28;20266;-49
2021/04/20 01:21:14;;;;;;;42.97;21.17;;;9.20;99.90;;;;;;5054670;28;20282;-62
2021/04/20 01:24:07;;;;;;;26.10;20.50;;;9.20;99.90;;;;;;5058016;28;20186;-52
2021/04/20 01:26:35;;;;;;;23.70;19.73;;;9.30;99.90;;;;;;5057719;28;20753;-50
2021/04/20 01:29:02;;;;;;;24.10;20.23;;;9.40;99.90;;;;;;5057902;28;20232;-60
2021/04/20 01:31:30;;;;;;;24.57;19.77;;;9.40;99.90;;;;;;5057566;28;20182;-49
2021/04/20 01:33:56;;;;;;;23.93;19.40;;;9.40;99.90;;;;;;5057714;28;20217;-50
2021/04/20 01:36:25;;;;;;;24.60;20.20;;;9.40;99.90;;;;;;5057689;28;20207;-49
2021/04/20 01:38:52;;;;;;;24.03;19.47;;;9.40;99.90;;;;;;5057473;28;20209;-51
2021/04/20 01:41:19;;;;;;;24.53;19.20;;;9.40;99.90;;;;;;5057297;28;20209;-54
2021/04/20 01:43:46;;;;;;;25.80;20.50;;;9.40;99.90;;;;;;5057466;28;20508;-60
2021/04/20 01:46:14;;;;;;;25.43;20.03;;;9.40;99.90;;;;;;5057444;28;20195;-59
2021/04/20 01:48:40;;;;;;;24.13;19.33;;;9.30;99.90;;;;;;5057519;28;20183;-52
2021/04/20 01:51:05;;;;;;;23.40;19.03;;;9.30;99.90;;;;;;5057335;28;20189;-49
2021/04/20 01:53:31;;;;;;;22.33;19.00;;;9.20;99.90;;;;;;5057348;28;20190;-60
2021/04/20 01:55:59;;;;;;;23.30;19.33;;;9.20;99.90;;;;;;5057455;28;20187;-61
2021/04/20 01:58:26;;;;;;;22.07;17.83;;;8.90;99.90;;;;;;5057327;28;20179;-51
2021/04/20 02:00:53;;;;;;;21.27;17.33;;;9.00;99.90;;;;;;5056980;28;20179;-54
2021/04/20 02:03:18;;;;;;;23.03;18.60;;;8.90;99.90;;;;;;5057039;28;20194;-53
2021/04/20 02:05:44;;;;;;;22.33;18.43;;;9.00;99.90;;;;;;5056877;28;20558;-58
2021/04/20 02:08:10;;;;;;;22.27;18.53;;;9.00;99.90;;;;;;5057064;28;20171;-48
2021/04/20 02:10:36;;;;;;;22.73;18.27;;;9.00;99.90;;;;;;5056939;28;20175;-58
2021/04/20 02:13:02;;;;;;;22.60;18.60;;;9.00;99.90;;;;;;5057396;28;20177;-52
2021/04/20 02:15:28;;;;;;;22.77;18.77;;;8.90;99.90;;;;;;5056748;28;20547;-61
2021/04/20 02:17:56;;;;;;;20.90;17.87;;;8.80;99.90;;;;;;5057072;28;20619;-60
2021/04/20 02:20:22;;;;;;;23.27;19.30;;;8.90;99.90;;;;;;5057152;28;20179;-59
2021/04/20 02:22:49;;;;;;;23.07;19.10;;;8.80;99.90;;;;;;5056698;28;20206;-61
2021/04/20 02:25:18;;;;;;;23.27;18.13;;;8.90;99.90;;;;;;5056732;28;20233;-57
2021/04/20 02:27:49;;;;;;;23.40;19.50;;;8.60;99.90;;;;;;5056702;28;20171;-49
2021/04/20 02:30:15;;;;;;;22.83;18.67;;;8.60;99.90;;;;;;5056716;28;20530;-51
2021/04/20 02:32:41;;;;;;;21.60;18.67;;;8.60;99.90;;;;;;5056448;28;20266;-60
2021/04/20 02:35:13;;;;;;;23.23;18.60;;;8.60;99.90;;;;;;5056492;28;20171;-55
2021/04/20 02:37:40;;;;;;;22.27;18.53;;;8.70;99.90;;;;;;5056334;28;20228;-60
2021/04/20 02:40:08;;;;;;;23.53;19.13;;;8.70;99.90;;;;;;5056616;28;20194;-59
2021/04/20 02:42:34;;;;;;;21.03;17.90;;;8.60;99.90;;;;;;5055821;28;20293;-52
2021/04/20 02:45:01;;;;;;;22.80;18.63;;;8.60;99.90;;;;;;5038406;28;20182;-51
2021/04/20 02:47:28;;;;;;;24.97;19.60;;;8.60;99.90;;;;;;5056195;28;20652;-49
2021/04/20 02:49:55;;;;;;;23.00;19.27;;;8.60;99.90;;;;;;5056373;28;20175;-61
2021/04/20 02:52:22;;;;;;;24.13;18.80;;;8.60;99.90;;;;;;5056091;28;20183;-49
2021/04/20 02:54:47;;;;;;;33.13;20.80;;;8.50;99.90;;;;;;5056189;28;20183;-51
2021/04/20 02:57:14;;;;;;;26.40;20.43;;;8.50;99.90;;;;;;5055862;28;20633;-60
2021/04/20 02:59:41;;;;;;;23.90;19.90;;;8.60;99.90;;;;;;5056248;28;20179;-61
2021/04/20 03:02:07;;;;;;;24.27;19.97;;;8.50;99.90;;;;;;5055811;28;20628;-50
2021/04/20 03:04:34;;;;;;;24.53;19.33;;;8.50;99.90;;;;;;5056151;28;20187;-49
2021/04/20 03:07:00;;;;;;;24.87;20.07;;;8.50;99.90;;;;;;5056412;28;20233;-50
2021/04/20 03:09:25;;;;;;;24.97;19.80;;;8.60;99.90;;;;;;5055935;28;20199;-49
2021/04/20 03:11:57;;;;;;;24.30;19.73;;;8.50;99.90;;;;;;5037797;28;20694;-55
2021/04/20 03:14:24;;;;;;;23.67;18.93;;;8.60;99.90;;;;;;5055925;28;20189;-58
2021/04/20 03:16:50;;;;;;;21.27;17.97;;;8.50;99.90;;;;;;5055715;28;20585;-59
2021/04/20 03:19:17;;;;;;;23.63;19.83;;;8.50;99.90;;;;;;5055781;28;20701;-54
2021/04/20 03:21:43;;;;;;;24.03;19.47;;;8.60;99.90;;;;;;5055403;28;20282;-61
2021/04/20 03:24:30;;;;;;;23.33;19.20;;;8.70;99.90;;;;;;5055492;28;20171;-56
2021/04/20 03:26:56;;;;;;;26.00;20.47;;;8.70;99.90;;;;;;5055526;28;20194;-49
2021/04/20 03:29:23;;;;;;;24.20;19.60;;;8.70;99.90;;;;;;5055592;28;20179;-59
2021/04/20 03:31:49;;;;;;;22.90;19.23;;;8.70;99.90;;;;;;5055300;28;20210;-51
2021/04/20 03:34:27;;;;;;;25.33;20.20;;;8.70;99.90;;;;;;5055364;28;20191;-54
2021/04/20 03:37:04;;;;;;;25.27;20.17;;;8.80;99.90;;;;;;5055361;28;20665;-61
2021/04/20 03:39:35;;;;;;;25.37;20.70;;;8.90;99.90;;;;;;5055251;28;20194;-53
2021/04/20 03:42:04;;;;;;;26.23;20.73;;;8.90;99.90;;;;;;5054987;28;20198;-50
2021/04/20 03:44:44;;;;;;;22.17;19.47;;;8.90;99.90;;;;;;5054787;28;20167;-51
2021/04/20 03:47:43;;;;;;;27.00;21.33;;;9.00;99.90;;;;;;5058642;28;20296;-49
2021/04/20 03:50:15;;;;;;;26.57;21.27;;;8.90;99.90;;;;;;4959858;28;20241;-59
2021/04/20 03:52:48;;;;;;;24.67;20.80;;;8.90;99.90;;;;;;4953151;28;20663;-49
2021/04/20 03:55:16;;;;;;;25.87;21.43;;;8.70;99.90;;;;;;4955436;28;20195;-60
2021/04/20 03:57:45;;;;;;;25.53;20.97;;;8.70;99.90;;;;;;4954964;29;20282;-62
2021/04/20 04:00:13;;;;;;;26.50;21.20;;;8.70;99.90;;;;;;4955232;29;20198;-59
2021/04/20 04:02:42;;;;;;;26.83;21.53;;;8.50;99.90;;;;;;4953373;28;20226;-48
2021/04/20 04:05:11;;;;;;;28.73;22.43;;;8.50;99.90;;;;;;4954952;29;20647;-60
2021/04/20 04:07:38;;;;;;;24.90;20.83;;;8.40;99.90;;;;;;4953583;29;20306;-52
2021/04/20 04:10:06;;;;;;;29.33;21.10;;;8.30;99.90;;;;;;4954859;29;20671;-49
2021/04/20 04:12:35;;;;;;;27.67;21.73;;;8.30;99.90;;;;;;4954432;29;20182;-59
2021/04/20 04:15:02;;;;;;;26.43;21.27;;;8.30;99.90;;;;;;4954620;29;20193;-51
2021/04/20 04:17:31;;;;;;;28.60;22.30;;;8.30;99.90;;;;;;4954622;29;20202;-59
2021/04/20 04:19:59;;;;;;;26.77;21.43;;;8.20;99.90;;;;;;4954708;29;20619;-58
2021/04/20 04:22:28;;;;;;;28.57;22.50;;;8.20;99.90;;;;;;4954237;28;20507;-60
2021/04/20 04:24:59;;;;;;;27.10;21.90;;;8.10;99.90;;;;;;4954468;29;20182;-59
2021/04/20 04:27:34;;;;;;;30.90;24.43;;;8.10;99.90;;;;;;5041525;28;20199;-51
2021/04/20 04:30:07;;;;;;;27.10;22.20;;;8.10;99.90;;;;;;5054627;28;20527;-52
2021/04/20 04:32:35;;;;;;;30.00;23.30;;;8.10;99.90;;;;;;5054187;28;20175;-60
2021/04/20 04:35:03;;;;;;;28.40;22.93;;;8.10;99.90;;;;;;5054359;28;20183;-60
2021/04/20 04:37:29;;;;;;;35.80;25.23;;;8.10;99.90;;;;;;5054097;28;20277;-59
2021/04/20 04:39:56;;;;;;;29.37;23.67;;;8.10;99.90;;;;;;5054168;28;20291;-59
2021/04/20 04:42:23;;;;;;;29.77;24.10;;;7.90;99.90;;;;;;5053976;28;20206;-60
2021/04/20 04:44:48;;;;;;;33.13;25.47;;;7.80;99.90;;;;;;5054246;28;20526;-61
2021/04/20 04:47:14;;;;;;;31.73;23.77;;;7.70;99.90;;;;;;5054310;28;20195;-57
2021/04/20 04:49:40;;;;;;;34.10;26.17;;;7.70;99.90;;;;;;5054255;28;20598;-55
2021/04/20 04:52:07;;;;;;;35.03;27.23;;;7.80;99.90;;;;;;5054040;28;20167;-49
2021/04/20 04:54:32;;;;;;;33.20;25.67;;;7.80;99.90;;;;;;5087284;28;20246;-59
2021/04/20 04:57:00;;;;;;;33.07;25.43;;;7.90;99.90;;;;;;5079167;28;20209;-51
2021/04/20 04:59:28;;;;;;;34.10;25.17;;;8.00;99.90;;;;;;5076940;28;20174;-60
2021/04/20 05:01:55;;;;;;;32.20;25.30;;;8.20;99.90;;;;;;5069871;28;20198;-49
2021/04/20 05:04:25;;;;;;;34.50;25.17;;;8.20;99.90;;;;;;5063056;28;20213;-51
2021/04/20 05:06:51;;;;;;;32.37;26.00;;;8.30;99.90;;;;;;5060112;28;20590;-50
2021/04/20 05:09:22;;;;;;;32.90;25.70;;;8.50;99.90;;;;;;5080619;28;20213;-52
2021/04/20 05:11:50;;;;;;;31.70;25.40;;;8.30;99.90;;;;;;5089188;28;20260;-57
2021/04/20 05:14:17;;;;;;;31.60;25.50;;;8.20;99.90;;;;;;5079327;28;20188;-61
2021/04/20 05:17:11;;;;;;;34.07;26.17;;;8.10;99.90;;;;;;5070610;28;20222;-57
2021/04/20 05:19:38;;;;;;;30.30;24.90;;;8.00;99.90;;;;;;5080025;28;20273;-61
2021/04/20 05:22:04;;;;;;;33.10;26.43;;;8.10;99.90;;;;;;5085535;28;20540;-61
2021/04/20 05:24:29;;;;;;;32.03;24.97;;;8.20;99.90;;;;;;5078498;28;20580;-49
2021/04/20 05:26:56;;;;;;;31.30;24.10;;;8.30;99.90;;;;;;5075120;28;20696;-58
2021/04/20 05:29:22;;;;;;;30.13;25.23;;;8.50;99.90;;;;;;5093847;28;20205;-50
2021/04/20 05:31:49;;;;;;;29.23;24.27;;;8.70;99.90;;;;;;5080445;28;20204;-51
2021/04/20 05:34:18;;;;;;;29.10;24.67;;;8.70;99.90;;;;;;5066994;28;20183;-52
2021/04/20 05:36:46;;;;;;;31.73;25.73;;;8.70;99.90;;;;;;5057229;28;20203;-51
2021/04/20 05:39:12;;;;;;;28.93;23.87;;;8.70;99.90;;;;;;5069442;28;20585;-60
2021/04/20 05:41:39;;;;;;;31.93;25.97;;;8.80;99.90;;;;;;5052437;28;20658;-49
2021/04/20 05:44:08;;;;;;;30.60;25.07;;;8.80;99.90;;;;;;5060549;28;20189;-57
2021/04/20 05:46:38;;;;;;;30.63;25.00;;;8.80;99.90;;;;;;5053546;28;20595;-55
2021/04/20 05:49:05;;;;;;;30.63;25.27;;;8.70;99.90;;;;;;5049664;28;20174;-50
2021/04/20 05:51:32;;;;;;;28.80;24.37;;;8.80;99.90;;;;;;5068716;28;20171;-60
2021/04/20 05:53:58;;;;;;;30.97;25.73;;;8.80;99.90;;;;;;5055182;28;20178;-51
2021/04/20 05:56:24;;;;;;;30.87;27.60;;;8.90;99.90;;;;;;5057322;28;20422;-60
2021/04/20 05:58:54;;;;;;;27.77;24.30;;;9.40;99.90;;;;;;5072690;28;20484;-50
2021/04/20 06:01:21;;;;;;;31.07;25.17;;;9.10;99.90;;;;;;5052893;28;20203;-48
2021/04/20 06:03:47;;;;;;;28.73;24.10;;;9.10;99.90;;;;;;5031747;28;20187;-49
2021/04/20 06:06:15;;;;;;;32.23;27.17;;;9.10;99.90;;;;;;5002765;28;20226;-60
2021/04/20 06:08:42;;;;;;;30.10;25.07;;;9.00;99.90;;;;;;5058321;28;20170;-49
2021/04/20 06:11:09;;;;;;;29.43;26.03;;;9.00;99.90;;;;;;5073441;28;20265;-48
2021/04/20 06:13:35;;;;;;;31.83;26.93;;;9.00;99.90;;;;;;5068342;28;20191;-61
2021/04/20 06:16:02;;;;;;;34.93;26.77;;;8.90;99.90;;;;;;5057182;28;20278;-61
2021/04/20 06:18:29;;;;;;;30.43;26.67;;;8.90;99.90;;;;;;5057352;28;20175;-57
2021/04/20 06:20:56;;;;;;;33.37;27.77;;;8.80;99.90;;;;;;5045084;28;20174;-52
2021/04/20 06:23:22;;;;;;;33.13;29.63;;;8.70;99.90;;;;;;5074354;28;20402;-58
2021/04/20 06:25:50;;;;;;;29.47;26.13;;;8.80;99.90;;;;;;5073820;28;20187;-59
2021/04/20 06:28:15;;;;;;;29.07;25.83;;;8.80;99.90;;;;;;5075492;28;20517;-51
2021/04/20 06:30:42;;;;;;;29.37;25.53;;;8.80;99.90;;;;;;5073752;28;20630;-60
2021/04/20 06:33:09;;;;;;;31.47;25.17;;;8.90;99.90;;;;;;5076255;28;20177;-54
2021/04/20 06:35:36;;;;;;;31.20;25.83;;;8.90;99.90;;;;;;5076894;28;20201;-57
2021/04/20 06:38:02;;;;;;;31.37;26.47;;;8.90;99.90;;;;;;5076424;28;20199;-51
2021/04/20 06:40:37;;;;;;;30.13;26.13;;;9.00;99.90;;;;;;5076403;28;20171;-57
2021/04/20 06:43:05;;;;;;;30.77;25.43;;;9.00;99.90;;;;;;5076289;28;20760;-60
2021/04/20 06:45:37;;;;;;;27.30;24.10;;;9.10;99.90;;;;;;5074901;28;20240;-51
2021/04/20 06:48:23;;;;;;;29.83;24.87;;;9.40;99.90;;;;;;5076338;28;20170;-60
2021/04/20 06:50:56;;;;;;;27.87;23.50;;;9.40;99.90;;;;;;5075294;28;20178;-53
2021/04/20 06:53:51;;;;;;;28.77;25.13;;;9.50;99.90;;;;;;5076616;28;20189;-59
2021/04/20 06:56:34;;;;;;;28.13;23.80;;;9.50;99.90;;;;;;5073057;28;20213;-61
2021/04/20 06:59:18;;;;;;;29.53;24.23;;;9.50;99.90;;;;;;5075180;28;20276;-56
2021/04/20 07:01:47;;;;;;;28.33;23.73;;;9.40;99.90;;;;;;5075618;28;20638;-61
2021/04/20 07:04:42;;;;;;;31.80;25.67;;;9.40;99.90;;;;;;5076255;28;20177;-54
2021/04/20 07:07:32;;;;;;;28.50;24.70;;;9.40;99.90;;;;;;5065100;28;20567;-60
2021/04/20 07:10:14;;;;;;;27.77;23.73;;;9.60;99.90;;;;;;5076439;28;20167;-57
2021/04/20 07:12:42;;;;;;;29.97;24.10;;;9.60;99.90;;;;;;5075685;28;20185;-51
2021/04/20 07:15:11;;;;;;;29.10;23.73;;;9.60;99.90;;;;;;5075683;28;20178;-57
2021/04/20 07:17:55;;;;;;;26.50;22.97;;;9.70;99.90;;;;;;5075604;28;20202;-60
2021/04/20 07:20:59;;;;;;;24.83;21.87;;;9.80;99.90;;;;;;5075381;28;20175;-51
2021/04/20 07:24:00;;;;;;;26.00;22.70;;;10.00;99.90;;;;;;4975259;28;20209;-53
2021/04/20 07:26:41;;;;;;;25.13;22.40;;;10.20;99.90;;;;;;4896799;29;20205;-51
2021/04/20 07:29:28;;;;;;;26.73;21.47;;;10.30;99.90;;;;;;4967174;28;20200;-50
2021/04/20 07:32:18;;;;;;;24.30;21.67;;;10.50;99.90;;;;;;4973274;28;20229;-49
2021/04/20 07:35:04;;;;;;;26.00;22.03;;;10.70;99.90;;;;;;4974592;28;20197;-59
2021/04/20 07:37:58;;;;;;;25.10;22.00;;;10.70;99.90;;;;;;4973369;28;20598;-59
2021/04/20 07:40:26;;;;;;;24.53;21.47;;;10.90;99.90;;;;;;4975140;28;20208;-59
2021/04/20 07:43:00;;;;;;;24.57;21.90;;;11.00;99.90;;;;;;4972784;28;20205;-49
2021/04/20 07:45:35;;;;;;;26.87;22.07;;;11.40;99.90;;;;;;4974716;28;20178;-52
2021/04/20 07:48:10;;;;;;;26.73;22.67;;;11.10;99.90;;;;;;4956513;28;20237;-60
2021/04/20 07:50:42;;;;;;;25.43;22.63;;;11.10;99.90;;;;;;4974547;28;20173;-59
2021/04/20 07:53:54;;;;;;;25.33;22.07;;;11.20;99.90;;;;;;4972640;28;20182;-59
2021/04/20 07:56:27;;;;;;;23.70;21.10;;;11.20;99.90;;;;;;4916830;29;20226;-52
2021/04/20 07:58:55;;;;;;;24.73;21.97;;;11.20;99.90;;;;;;4915133;29;20295;-53
2021/04/20 08:01:38;;;;;;;23.80;21.17;;;11.40;99.90;;;;;;4981068;28;20674;-54
2021/04/20 08:04:20;;;;;;;23.80;20.73;;;11.60;99.90;;;;;;4992235;28;20188;-51
2021/04/20 08:06:48;;;;;;;24.23;21.20;;;11.70;99.90;;;;;;4993310;28;20267;-54
2021/04/20 08:09:24;;;;;;;24.50;21.53;;;11.60;99.90;;;;;;4993914;28;20183;-54
2021/04/20 08:11:57;;;;;;;21.17;18.97;;;11.50;99.90;;;;;;4993185;28;20199;-60
2021/04/20 08:14:25;;;;;;;21.90;19.60;;;11.60;99.90;;;;;;4993426;28;20265;-59
2021/04/20 08:17:06;;;;;;;23.00;20.10;;;11.70;99.90;;;;;;4988795;28;20265;-59
2021/04/20 08:19:43;;;;;;;21.90;19.50;;;11.90;99.90;;;;;;4992766;28;20649;-58
2021/04/20 08:22:12;;;;;;;23.37;20.03;;;11.90;99.90;;;;;;4973495;28;20752;-59
2021/04/20 08:24:43;;;;;;;23.47;20.03;;;11.90;99.90;;;;;;4973027;28;20189;-60
2021/04/20 08:27:44;;;;;;;23.27;20.00;;;11.80;99.90;;;;;;4974128;28;20642;-52
2021/04/20 08:30:23;;;;;;;23.33;20.30;;;11.80;99.90;;;;;;4973628;28;20197;-60
2021/04/20 08:32:50;;;;;;;22.77;20.10;;;11.80;99.90;;;;;;5046344;28;20195;-58
2021/04/20 08:35:23;;;;;;;22.60;20.20;;;11.70;99.90;;;;;;5055414;28;20171;-60
2021/04/20 08:38:00;;;;;;;25.30;20.37;;;11.70;99.90;;;;;;5052942;28;20186;-52
2021/04/20 08:40:37;;;;;;;25.27;20.47;;;11.70;99.90;;;;;;5036166;28;20198;-59
2021/04/20 08:43:17;;;;;;;23.63;20.73;;;11.80;99.90;;;;;;5052767;28;20211;-57
2021/04/20 08:46:22;;;;;;;23.97;20.80;;;11.50;99.90;;;;;;5054913;28;20187;-58
2021/04/20 08:48:55;;;;;;;22.97;20.17;;;11.30;99.90;;;;;;4972002;28;20213;-48
2021/04/20 08:51:29;;;;;;;23.67;20.43;;;11.00;99.90;;;;;;4957534;28;20246;-49
2021/04/20 08:54:04;;;;;;;23.97;21.00;;;10.90;99.90;;;;;;4973782;28;20685;-53
2021/04/20 08:56:40;;;;;;;24.13;20.67;;;11.00;99.90;;;;;;4973485;28;20330;-51
2021/04/20 08:59:32;;;;;;;24.53;20.80;;;10.90;99.90;;;;;;4973542;28;20174;-52
2021/04/20 09:02:04;;;;;;;24.47;20.93;;;10.90;99.90;;;;;;4973640;28;20205;-50
2021/04/20 09:04:32;;;;;;;24.53;21.13;;;10.80;99.90;;;;;;4973813;28;20285;-53
2021/04/20 09:07:26;;;;;;;23.70;20.30;;;10.70;99.90;;;;;;4973479;28;20208;-60
2021/04/20 09:09:54;;;;;;;24.90;20.40;;;10.50;99.90;;;;;;4973609;28;20193;-60
2021/04/20 09:12:22;;;;;;;22.73;19.60;;;10.50;99.90;;;;;;4973104;28;20196;-54
2021/04/20 09:14:49;;;;;;;22.53;20.13;;;10.40;99.90;;;;;;4971404;28;20206;-57
2021/04/20 09:17:19;;;;;;;22.13;19.70;;;10.40;99.90;;;;;;4972994;28;20229;-59
2021/04/20 09:19:56;;;;;;;24.00;20.37;;;10.40;99.90;;;;;;4972904;28;20189;-58
2021/04/20 09:22:27;;;;;;;24.63;20.77;;;10.50;99.90;;;;;;4998914;28;20213;-52
2021/04/20 09:25:04;;;;;;;23.60;20.33;;;10.50;99.90;;;;;;5053639;28;20163;-58
2021/04/20 09:27:48;;;;;;;25.13;21.20;;;10.70;99.90;;;;;;5053643;28;20597;-53
2021/04/20 09:30:18;;;;;;;25.10;21.83;;;10.90;99.90;;;;;;5053696;28;20166;-60
2021/04/20 09:32:57;;;;;;;23.83;20.77;;;11.10;99.90;;;;;;5053501;28;20175;-60
2021/04/20 09:35:24;;;;;;;22.80;19.43;;;11.20;99.90;;;;;;5054275;28;20197;-58
2021/04/20 09:37:52;;;;;;;22.10;19.70;;;11.20;99.90;;;;;;5052281;28;20680;-53
2021/04/20 09:40:21;;;;;;;22.37;19.90;;;11.20;99.90;;;;;;5053748;28;20218;-51
2021/04/20 09:42:53;;;;;;;22.80;19.63;;;11.10;99.90;;;;;;5054642;28;20198;-60
2021/04/20 09:45:42;;;;;;;22.33;19.13;;;11.10;99.90;;;;;;5057623;28;20171;-52
2021/04/20 09:48:19;;;;;;;21.47;19.17;;;11.10;99.90;;;;;;5056554;28;20266;-60
2021/04/20 09:51:10;;;;;;;22.50;19.93;;;11.10;99.90;;;;;;5057621;28;20210;-60
2021/04/20 09:53:58;;;;;;;23.13;19.90;;;11.00;99.90;;;;;;5056453;28;20168;-57
2021/04/20 09:56:42;;;;;;;21.53;19.00;;;10.90;99.90;;;;;;5057533;28;20237;-60
2021/04/20 09:59:23;;;;;;;22.07;19.57;;;10.90;99.90;;;;;;5057348;28;20508;-60
2021/04/20 10:01:57;;;;;;;19.80;17.63;;;10.90;99.90;;;;;;5057020;28;20662;-59
2021/04/20 10:04:41;;;;;;;19.50;17.23;;;11.00;99.90;;;;;;5057569;28;20533;-58
2021/04/20 10:07:35;;;;;;;22.10;19.10;;;11.00;99.90;;;;;;5057213;28;20191;-57
2021/04/20 10:10:31;;;;;;;18.33;16.43;;;11.20;99.90;;;;;;5038006;28;20202;-48
2021/04/20 10:13:18;;;;;;;18.93;16.93;;;11.30;99.90;;;;;;5056847;28;20167;-57
2021/04/20 10:16:03;;;;;;;17.77;15.93;;;11.40;99.90;;;;;;5055975;28;20191;-54
2021/04/20 10:18:46;;;;;;;17.60;15.80;;;11.40;99.90;;;;;;5056702;28;20255;-55
2021/04/20 10:21:27;;;;;;;18.37;15.43;;;11.70;99.90;;;;;;5056478;28;20179;-52
2021/04/20 10:24:05;;;;;;;16.43;14.73;;;11.90;99.90;;;;;;5057114;28;20620;-59
2021/04/20 10:27:04;;;;;;;15.67;14.07;;;12.00;99.90;;;;;;5056796;28;20187;-60
2021/04/20 10:29:46;;;;;;;16.00;14.30;;;12.10;99.90;;;;;;5056796;28;20167;-59
2021/04/20 10:32:34;;;;;;;16.33;14.63;;;12.40;99.90;;;;;;5056529;28;20206;-53
2021/04/20 10:35:03;;;;;;;15.23;13.63;;;12.60;99.90;;;;;;5056743;28;20178;-53
2021/04/20 10:37:31;;;;;;;15.17;13.67;;;12.60;99.90;;;;;;5056641;28;20278;-59
2021/04/20 10:39:59;;;;;;;15.73;14.13;;;12.90;99.90;;;;;;5056354;28;20278;-51
2021/04/20 10:42:30;;;;;;;14.27;12.77;;;12.90;99.90;;;;;;5056297;28;20210;-60
2021/04/20 10:44:56;;;;;;;14.67;13.17;;;13.10;99.90;;;;;;5056595;28;20211;-56
2021/04/20 10:47:25;;;;;;;14.60;13.07;;;13.30;99.90;;;;;;5056379;28;20645;-49
2021/04/20 10:49:52;;;;;;;14.53;13.03;;;13.60;99.90;;;;;;5056399;28;20197;-54
2021/04/20 10:52:19;;;;;;;14.13;12.73;;;13.80;99.90;;;;;;5056050;28;20626;-58
2021/04/20 10:54:47;;;;;;;14.23;12.73;;;13.80;99.90;;;;;;5055050;28;20188;-55
2021/04/20 10:57:13;;;;;;;14.03;12.63;;;13.80;99.90;;;;;;5056212;28;20205;-50
2021/04/20 10:59:42;;;;;;;14.27;12.87;;;13.60;99.90;;;;;;5056098;28;20178;-58
2021/04/20 11:02:19;;;;;;;13.63;12.23;;;13.40;99.90;;;;;;5055858;28;20187;-56
2021/04/20 11:04:47;;;;;;;12.57;11.33;;;13.50;99.90;;;;;;5056404;28;20174;-55
2021/04/20 11:07:17;;;;;;;13.37;12.03;;;13.70;99.90;;;;;;5055879;28;20274;-59
2021/04/20 11:09:43;;;;;;;14.03;11.77;;;14.10;99.90;;;;;;5056144;28;20163;-50
2021/04/20 11:12:27;;;;;;;12.93;11.63;;;14.40;99.90;;;;;;5055590;28;20175;-60
2021/04/20 11:14:54;;;;;;;12.90;11.70;;;14.60;99.90;;;;;;5055743;28;20171;-57
2021/04/20 11:17:44;;;;;;;12.10;10.67;;;14.50;99.90;;;;;;5055676;28;20213;-56
2021/04/20 11:20:13;;;;;;;11.77;10.67;;;14.50;99.90;;;;;;5055838;28;20172;-53
2021/04/20 11:22:47;;;;;;;11.70;10.50;;;14.50;99.90;;;;;;5055422;28;20204;-54
2021/04/20 11:25:52;;;;;;;10.77;9.77;;;14.70;99.90;;;;;;5055823;28;20166;-53
2021/04/20 11:28:24;;;;;;;11.10;10.00;;;14.70;99.90;;;;;;5027203;28;20187;-50
2021/04/20 11:30:56;;;;;;;10.87;9.77;;;14.60;99.90;;;;;;5055538;28;20283;-52
2021/04/20 11:33:36;;;;;;;10.67;9.57;;;14.70;99.90;;;;;;5055574;28;20635;-60
2021/04/20 11:36:08;;;;;;;10.57;9.47;;;15.00;99.90;;;;;;5055769;28;20197;-57
2021/04/20 11:38:44;;;;;;;11.60;10.50;;;15.20;99.90;;;;;;5055484;28;20183;-59
2021/04/20 11:41:11;;;;;;;9.85;8.95;;;15.30;99.90;;;;;;5054971;28;20167;-57
2021/04/20 11:43:37;;;;;;;9.70;8.70;;;15.80;99.90;;;;;;5055294;28;20172;-59
2021/04/20 11:46:04;;;;;;;10.80;9.70;;;16.20;99.90;;;;;;5055613;28;20665;-59
2021/04/20 11:48:34;;;;;;;10.33;9.33;;;16.50;99.90;;;;;;5055138;28;20225;-50
2021/04/20 11:51:03;;;;;;;10.10;9.13;;;16.90;99.90;;;;;;5056380;28;20194;-55
2021/04/20 11:53:44;;;;;;;9.93;9.03;;;17.00;99.90;;;;;;5063683;28;20213;-52
2021/04/20 11:56:11;;;;;;;9.43;8.53;;;17.00;99.90;;;;;;5054820;28;20199;-60
2021/04/20 11:58:46;;;;;;;10.13;9.13;;;17.10;99.90;;;;;;5053695;28;20174;-60
2021/04/20 12:01:24;;;;;;;9.63;8.73;;;16.80;99.90;;;;;;5054752;28;20177;-59
2021/04/20 12:04:01;;;;;;;9.63;8.63;;;16.70;99.90;;;;;;5054974;28;20266;-57
2021/04/20 12:06:51;;;;;;;9.73;8.73;;;16.80;99.90;;;;;;5054108;28;20187;-51
2021/04/20 12:09:22;;;;;;;10.97;9.83;;;17.00;99.90;;;;;;5054492;28;20176;-55
2021/04/20 12:11:48;;;;;;;11.87;10.67;;;17.20;99.90;;;;;;5054382;28;20172;-59
2021/04/20 12:14:17;;;;;;;11.63;10.50;;;17.30;99.90;;;;;;5054611;28;20175;-49
2021/04/20 12:16:45;;;;;;;11.37;10.17;;;17.30;99.90;;;;;;5054486;28;20232;-50
2021/04/20 12:19:14;;;;;;;11.20;10.10;;;17.20;99.90;;;;;;5054538;28;20189;-49
2021/04/20 12:21:46;;;;;;;11.10;10.10;;;17.40;99.90;;;;;;5053975;28;20286;-48
2021/04/20 12:24:16;;;;;;;10.33;8.90;;;17.70;99.90;;;;;;5053567;28;20183;-51
2021/04/20 12:26:44;;;;;;;9.23;8.32;;;18.60;99.90;;;;;;5054543;28;20591;-58
2021/04/20 12:29:14;;;;;;;9.18;8.27;;;19.30;99.90;;;;;;5053272;28;20179;-60
2021/04/20 12:31:40;;;;;;;8.82;7.95;;;20.10;99.90;;;;;;5054080;28;20199;-60
2021/04/20 12:34:07;;;;;;;7.65;6.95;;;20.10;99.30;;;;;;5054363;28;20171;-61
2021/04/20 12:36:47;;;;;;;8.23;7.40;;;20.00;96.70;;;;;;5054289;28;20199;-49
2021/04/20 12:39:23;;;;;;;9.02;8.15;;;19.60;97.90;;;;;;5053859;28;20214;-49
2021/04/20 12:41:50;;;;;;;8.80;8.00;;;19.80;95.60;;;;;;5053277;28;20624;-60
2021/04/20 12:44:16;;;;;;;9.50;8.60;;;20.40;99.30;;;;;;5054257;28;20638;-59
2021/04/20 12:46:43;;;;;;;9.13;8.30;;;21.00;97.90;;;;;;5053058;28;20247;-57
2021/04/20 12:49:10;;;;;;;8.73;7.93;;;20.90;99.70;;;;;;5053950;28;20277;-50
2021/04/20 12:51:40;;;;;;;9.05;8.15;;;21.00;95.80;;;;;;5053733;28;20174;-52
2021/04/20 12:54:17;;;;;;;8.75;7.95;;;20.90;95.10;;;;;;5036412;28;20176;-57
2021/04/20 12:56:44;;;;;;;9.57;8.75;;;20.30;96.70;;;;;;5054092;28;20199;-60